2002 MITAG (2002057N06156)


On this page: IBTrACS data - Map and Plots - Positions - Intensities - Original source data

Summary

Start Feb 26
End Mar 9
Basin WP
LMI 140 kt
Sources jtwc_wp
tokyo
cma
hko
In WMO? Yes
Previous storm 2002 TC_16P (SP)
Previous in basin 2002 TAPAH (WP)
Concurrent storms 2002 MITAG (WP)
2002 DES (SP)
2002 HARY (SI)
Next in basin Missing
Next storm 2002 DES (SP)

top of page IBTrACS Data: File Access

top of page HURSAT Data: File Access

Image of storm

top of page Plots:

Map of storm track will not appear if FTP is down
Time series of cyclone Maximum Sustained Wind will not appear if FTP is down
Time series of cyclone Minimum Central Pressure will not appear if FTP is down

top of page Track Data:Position

jtwc_wp tokyo cma hko
Date Lat Lon Lat Lon Lat Lon Lat Lon
2002-02-26 06:00:00 6.1 156.3
2002-02-26 12:00:00 6.1 156.0 5.8 155.7
2002-02-26 18:00:00 6.1 155.7 6.0 155.5 6.0 155.5
2002-02-27 00:00:00 6.2 155.3 6.2 155.3 6.2 155.3
2002-02-27 06:00:00 6.3 154.9 6.5 155.0 6.5 155.0 6.7 155.1
2002-02-27 12:00:00 6.5 154.3 6.7 154.6 6.7 154.6 6.9 154.6
2002-02-27 18:00:00 6.6 153.8 6.8 153.9 6.8 154.0 7.0 154.0
2002-02-28 00:00:00 6.7 153.3 7.0 153.5 7.0 153.3 7.1 153.3
2002-02-28 06:00:00 6.9 152.7 7.1 152.2 7.1 152.2 7.2 152.3
2002-02-28 12:00:00 7.1 151.7 7.1 151.2 7.1 151.2 7.2 151.3
2002-02-28 18:00:00 6.9 150.4 7.1 150.3 7.1 150.2 7.2 150.4
2002-03-01 00:00:00 6.7 148.9 6.7 149.0 6.7 148.9 7.0 149.2
2002-03-01 06:00:00 6.6 148.0 6.5 147.9 6.6 147.9 6.9 148.0
2002-03-01 12:00:00 6.6 146.9 6.6 147.0 6.6 146.9 6.8 146.9
2002-03-01 18:00:00 6.7 145.5 6.7 145.6 6.7 145.5 6.9 145.6
2002-03-02 00:00:00 7.1 144.1 7.1 144.2 7.0 144.3 7.1 144.3
2002-03-02 06:00:00 7.6 142.6 7.7 142.7 7.5 142.9 7.5 142.8
2002-03-02 12:00:00 8.0 140.9 8.1 141.0 8.0 141.0 8.0 141.2
2002-03-02 18:00:00 8.4 139.3 8.5 139.4 8.5 139.5 8.5 139.6
2002-03-03 00:00:00 8.8 137.8 8.8 137.9 8.9 138.1 8.8 138.2
2002-03-03 06:00:00 9.5 136.7 9.5 136.8 9.5 136.8 9.2 136.8
2002-03-03 12:00:00 10.2 135.3 10.2 135.3 10.2 135.3 9.8 135.5
2002-03-03 18:00:00 10.5 134.2 10.6 134.2 10.6 134.2 10.5 134.2
2002-03-04 00:00:00 10.9 133.0 10.7 133.2 10.8 133.2 10.8 133.2
2002-03-04 06:00:00 11.3 132.5 11.1 132.5 11.1 132.5 11.1 132.5
jtwc_wp tokyo cma hko
2002-03-04 12:00:00 12.0 131.8 11.9 132.0 11.9 132.0 11.8 132.0
2002-03-04 18:00:00 12.5 131.2 12.5 131.2 12.5 131.2 12.5 131.2
2002-03-05 00:00:00 13.1 130.6 13.1 130.6 13.1 130.5 13.1 130.5
2002-03-05 06:00:00 13.7 130.0 13.7 130.1 13.8 130.1 13.7 130.0
2002-03-05 12:00:00 14.2 129.9 14.3 129.9 14.3 129.9 14.3 129.9
2002-03-05 18:00:00 14.8 129.9 14.9 130.0 14.9 129.9 14.9 129.9
2002-03-06 00:00:00 15.5 130.1 15.5 130.1 15.6 130.1 15.5 130.1
2002-03-06 06:00:00 16.0 130.4 16.1 130.4 16.1 130.4 16.1 130.4
2002-03-06 12:00:00 16.6 130.9 16.7 131.0 16.7 131.0 16.7 130.9
2002-03-06 18:00:00 17.1 131.5 17.2 131.6 17.1 131.5 17.2 131.4
2002-03-07 00:00:00 17.6 132.4 17.6 132.4 17.6 132.4 17.7 132.2
2002-03-07 06:00:00 17.9 133.5 18.1 133.6 18.1 133.5 18.2 133.4
2002-03-07 12:00:00 18.0 134.3 18.3 134.6 18.3 134.6 18.4 134.3
2002-03-07 18:00:00 17.9 134.9 18.3 135.1 18.3 135.2 18.2 135.1
2002-03-08 00:00:00 17.6 135.4 17.7 135.4 17.7 135.4 17.8 135.5
2002-03-08 06:00:00 17.1 135.3 17.2 135.3 17.1 135.3 17.3 135.4
2002-03-08 12:00:00 16.8 134.7 16.7 134.8 16.7 134.8
2002-03-08 18:00:00 16.2 133.8
2002-03-09 00:00:00 15.4 132.9

top of pageTrack Data:Intensity

jtwc_wp tokyo cma hko
Date Wind Pres Wind Pres Wind Pres Wind Pres
2002-02-26 06:00:00 25. 1002.
2002-02-26 12:00:00 25. 1002. 1006.
2002-02-26 18:00:00 25. 1002. 1004. 23. 1004.
2002-02-27 00:00:00 30. 1000. 1004. 23. 1004.
2002-02-27 06:00:00 35. 997. 1002. 23. 1002. 30. 1000.
2002-02-27 12:00:00 35. 997. 1002. 29. 1000. 30. 1000.
2002-02-27 18:00:00 35. 997. 1000. 29. 1000. 30. 1000.
2002-02-28 00:00:00 35. 997. 1000. 29. 1000. 30. 1000.
2002-02-28 06:00:00 35. 997. 998. 29. 998. 35. 996.
2002-02-28 12:00:00 40. 994. 35. 998. 35. 995. 35. 996.
2002-02-28 18:00:00 45. 991. 40. 996. 39. 995. 40. 994.
2002-03-01 00:00:00 45. 991. 45. 990. 45. 990. 45. 990.
2002-03-01 06:00:00 70. 972. 50. 985. 54. 985. 50. 985.
2002-03-01 12:00:00 70. 972. 50. 985. 54. 985. 50. 985.
2002-03-01 18:00:00 70. 972. 55. 980. 58. 980. 55. 980.
2002-03-02 00:00:00 70. 972. 60. 975. 58. 980. 60. 975.
2002-03-02 06:00:00 75. 967. 65. 970. 64. 975. 65. 970.
2002-03-02 12:00:00 90. 954. 70. 965. 68. 970. 70. 965.
2002-03-02 18:00:00 100. 944. 75. 960. 68. 965. 70. 965.
2002-03-03 00:00:00 100. 944. 75. 960. 68. 965. 70. 965.
2002-03-03 06:00:00 100. 944. 75. 960. 78. 960. 70. 965.
2002-03-03 12:00:00 100. 944. 75. 960. 78. 960. 70. 965.
2002-03-03 18:00:00 105. 938. 75. 955. 78. 960. 75. 960.
2002-03-04 00:00:00 115. 927. 80. 945. 87. 955. 80. 955.
2002-03-04 06:00:00 115. 927. 85. 940. 87. 955. 90. 945.
jtwc_wp tokyo cma hko
2002-03-04 12:00:00 120. 922. 85. 940. 87. 955. 90. 945.
2002-03-04 18:00:00 125. 916. 85. 940. 87. 955. 90. 945.
2002-03-05 00:00:00 130. 910. 90. 940. 87. 955. 90. 945.
2002-03-05 06:00:00 140. 898. 95. 930. 97. 945. 95. 940.
2002-03-05 12:00:00 140. 898. 95. 930. 97. 945. 95. 940.
2002-03-05 18:00:00 140. 898. 95. 930. 97. 945. 95. 940.
2002-03-06 00:00:00 130. 910. 95. 930. 97. 945. 95. 940.
2002-03-06 06:00:00 125. 916. 95. 935. 97. 945. 90. 945.
2002-03-06 12:00:00 120. 922. 85. 940. 87. 955. 85. 950.
2002-03-06 18:00:00 115. 927. 80. 950. 78. 965. 75. 960.
2002-03-07 00:00:00 95. 949. 75. 955. 68. 970. 65. 970.
2002-03-07 06:00:00 75. 967. 70. 960. 58. 980. 55. 980.
2002-03-07 12:00:00 65. 976. 60. 970. 49. 985. 45. 990.
2002-03-07 18:00:00 55. 984. 50. 980. 39. 990. 40. 994.
2002-03-08 00:00:00 35. 997. 45. 990. 35. 995. 35. 996.
2002-03-08 06:00:00 25. 1002. 40. 996. 29. 1000. 30. 1000.
2002-03-08 12:00:00 20. 1004. 1004. 23. 1004.
2002-03-08 18:00:00 1012.
2002-03-09 00:00:00 1012.

top of page Links to source data

Source Source file Format
jtwc_wp bwp022002.txt ATCF
tokyo bst_all.txt:Line=51156:MITAG:202 JMA text table
cma CH2002BST.txt:Storm=2:Mitag CMA text table
hko tc-besttrack-data.txt:Line=29148:MITAG HKO Text table